Nearby METAR Reports

 

KOXC - Oxford/Waterbury, Connecticut, USA
Distance from station: SE 8mi, 12km
Updated: Fri, 15-Jan-2021 3:51pm EST
Overcast
Overcast
 Wind from E
Wind: E 12 mph , 19 km/h
Temperature: 39°F , 4°C
Wind Chill: 32°F , 0°C
Dew Point: 36°F , 2°C
Humidity: 87%
Barometer: 29.95 inHg , 1014.2 hPa
Clouds: Overcast
Visibility: 10 miles , 16 km
Cloud details: Overcast 1700 ft
2021/01/15 20:51 KOXC 152051Z 10010KT 10SM OVC017 04/02 A2995 RMK AO2 SLP161 T00390022 55008
KDXR - Danbury, Connecticut, USA
Distance from station: SW 19mi, 30km
Updated: Fri, 15-Jan-2021 3:53pm EST
Overcast
Overcast
 Wind from E
Wind: E 8 mph , 13 km/h
Temperature: 39°F , 4°C
Wind Chill: 33°F , 1°C
Dew Point: 34°F , 1°C
Humidity: 81%
Barometer: 29.95 inHg , 1014.2 hPa
Clouds: Overcast
Visibility: 9 miles , 14 km
Cloud details: Overcast 800 ft
2021/01/15 20:53 KDXR 152053Z 10007KT 9SM OVC008 04/01 A2995 RMK AO2 SLP144 T00440011 56012
 
KMMK - Meriden, Connecticut, USA
Distance from station: E 20mi, 33km
Updated: Fri, 15-Jan-2021 3:53pm EST
Overcast
Overcast
 Wind from varies
Wind: varies 5 mph , 7 km/h
Temperature: 43°F , 6°C
Wind Chill: 40°F , 4°C
Dew Point: 32°F , 0°C
Humidity: 66%
Barometer: 29.98 inHg , 1015.2 hPa
Clouds: Overcast
Visibility: 10 miles , 16 km
Cloud details: Overcast 2600 ft
2021/01/15 20:53 KMMK 152053Z AUTO VRB04KT 10SM OVC026 06/00 A2998 RMK AO2 SLP153 T00610000 56010
KBDR - Bridgeport, Connecticut, USA
Distance from station: S 27mi, 44km
Updated: Fri, 15-Jan-2021 3:52pm EST
Overcast
Overcast
 Wind from E
Wind: E 18 mph , 30 km/h
Temperature: 43°F , 6°C
Wind Chill: 35°F , 2°C
Dew Point: 37°F , 3°C
Humidity: 81%
Barometer: 29.97 inHg , 1014.9 hPa
Clouds: Overcast
Visibility: 10 miles , 16 km
Cloud details: Overcast 1800 ft
2021/01/15 20:52 KBDR 152052Z 09016KT 10SM OVC018 06/03 A2997 RMK AO2 SLP147 T00560028 56011
 
KHVN - New Haven/Tweed, Connecticut, USA
Distance from station: SE 27mi, 44km
Updated: Fri, 15-Jan-2021 3:53pm EST
Overcast
Overcast
 Wind from E
Wind: E 16 mph , 26 km/h, Gust: 21 mph , 33 km/h
Temperature: 45°F , 7°C
Wind Chill: 38°F , 3°C
Dew Point: 36°F , 2°C
Humidity: 71%
Barometer: 29.97 inHg , 1014.9 hPa
Clouds: Overcast
Visibility: 8 miles , 13 km
Cloud details: Partly cloudy 2200 ft
Overcast 3400 ft
2021/01/15 20:53 KHVN 152053Z 09014G18KT 8SM SCT022 OVC034 07/02 A2997 RMK AO2 SLP149 T00670022 55009
KHFD - Hartford/Brainar, Connecticut, USA
Distance from station: ENE 32mi, 52km
Updated: Fri, 15-Jan-2021 3:53pm EST
Overcast
Overcast
 Wind from E
Wind: E 12 mph , 19 km/h, Gust: 17 mph , 28 km/h
Temperature: 45°F , 7°C
Wind Chill: 39°F , 4°C
Dew Point: 30°F , -1°C
Humidity: 57%
Barometer: 30.00 inHg , 1015.9 hPa
Clouds: Overcast
Visibility: 10 miles , 16 km
Cloud details: Overcast 3100 ft
2021/01/15 20:53 KHFD 152053Z 10010G15KT 10SM OVC031 07/M01 A3000 RMK AO2 SLP157 T00671006 55012
 
KPOU - Poughkeepsie, New York, USA
Distance from station: W 35mi, 56km
Updated: Fri, 15-Jan-2021 3:53pm EST
Overcast
Overcast
 Wind from E
Wind: E 7 mph , 11 km/h
Temperature: 39°F , 4°C
Wind Chill: 34°F , 1°C
Dew Point: 34°F , 1°C
Humidity: 81%
Barometer: 29.93 inHg , 1013.5 hPa
Clouds: Overcast
Visibility: 9 miles , 14 km
Cloud details: Overcast 1800 ft
2021/01/15 20:53 KPOU 152053Z 08006KT 9SM OVC018 04/01 A2993 RMK AO2 SLP132 T00440011 56018
KBDL - Windsor Locks, Connecticut, USA
Distance from station: NE 38mi, 62km
Updated: Fri, 15-Jan-2021 3:51pm EST
Overcast
Overcast
 Wind from NNE
Wind: NNE 8 mph , 13 km/h
Temperature: 37°F , 3°C
Wind Chill: 31°F , -1°C
Dew Point: 34°F , 1°C
Humidity: 87%
Barometer: 29.99 inHg , 1015.6 hPa
Clouds: Overcast
Visibility: 7 miles , 11 km
Cloud details: Overcast 3500 ft
2021/01/15 20:51 KBDL 152051Z 03007KT 7SM OVC035 03/01 A2999 RMK AO2 SLP156 T00330011 58013 $
 
KSNC - Chester, Connecticut, USA
Distance from station: ESE 39mi, 63km
Updated: Fri, 15-Jan-2021 4:15pm EST
Overcast
Overcast
 Wind from ESE
Wind: ESE 9 mph , 15 km/h, Gust: 16 mph , 26 km/h
Temperature: 41°F , 5°C
Wind Chill: 35°F , 2°C
Dew Point: 34°F , 1°C
Humidity: 76%
Barometer: 29.99 inHg , 1015.6 hPa
Clouds: Overcast
Visibility: 9 miles , 14 km
Cloud details: Overcast 2100 ft
2021/01/15 21:15 KSNC 152115Z AUTO 11008G14KT 9SM OVC021 05/01 A2999 RMK AO2
KHPN - White Plains, New York, USA
Distance from station: SW 42mi, 67km
Updated: Fri, 15-Jan-2021 3:56pm EST
Overcast
Overcast
 Wind from E
Wind: E 15 mph , 24 km/h, Gust: 24 mph , 39 km/h
Temperature: 39°F , 4°C
Wind Chill: 31°F , -1°C
Dew Point: 36°F , 2°C
Humidity: 87%
Barometer: 29.91 inHg , 1012.9 hPa
Clouds: Overcast
Visibility: 9 miles , 14 km
Cloud details: Mostly cloudy 900 ft
Overcast 1500 ft
2021/01/15 20:56 KHPN 152056Z 08013G21KT 9SM BKN009 OVC015 04/02 A2991 RMK AO2 SLP135 T00440022 56012
 
KSWF - Newburgh/Stewart, New York, USA
Distance from station: W 45mi, 72km
Updated: Fri, 15-Jan-2021 3:45pm EST
Mist, Overcast
Mist, Overcast
 Wind from E
Wind: E 7 mph , 11 km/h
Temperature: 37°F , 3°C
Wind Chill: 32°F , 0°C
Dew Point: 37°F , 3°C
Humidity: 100%
Barometer: 29.92 inHg , 1013.2 hPa
Summary: Mist
Clouds: Overcast
Visibility: 3 miles , 5 km
Cloud details: Overcast 600 ft
2021/01/15 20:45 KSWF 152045Z 09006KT 3SM BR OVC006 03/03 A2992
KBAF - Westfield, Massachusetts, USA
Distance from station: NNE 50mi, 80km
Updated: Fri, 15-Jan-2021 3:56pm EST
Mist, Overcast
Mist, Overcast
 Wind from NNE
Wind: NNE 7 mph , 11 km/h
Temperature: 36°F , 2°C
Wind Chill: 30°F , -1°C
Dew Point: 34°F , 1°C
Humidity: 93%
Barometer: 29.99 inHg , 1015.6 hPa
Summary: Mist
Clouds: Overcast
Visibility: 3 miles , 5 km
Cloud details: Overcast 2800 ft
2021/01/15 20:56 KBAF 152056Z 03006KT 3SM BR OVC028 02/01 A2999 RMK AO2 T00220006